Main page
METAR-TAF:

METAR-TAF

Airports :

University-Oxford Airport

Oxford, Mississippi, United States

latitude: 34-23-04N, longitude: 089-32-08W, elevation: 453 ft

Current weather observation

The report was made 48 minutes ago, at 02:15 UTC
Calm wind
Temperature 81°F
Humidity 74%
Pressure 29.94 in. Hg
Visibility: 10 miles
Clear sky

METAR: KUOX 250215Z AUTO 00000KT 10SM CLR 27/22 A2994 RMK AO2 PWINO

Time: 22:03 (03:03 UTC)


TAF: missing

Weather observations and forecasts of more than 4000 airports (METAR and TAF reports).

The available stations are represented by yellow and red dots on the map.

Hover mouse over dot to see the name of the station.

Then click to see weather observations and forecasts.

To change the map : click on the green buttons with a black cross to zoom in, on the green button with a dash to zoom out, or on the green arrows for adjacent maps.


METAR-TAF: